sensor_id;sensor_type;location;lat;lon;timestamp;temperature;humidity
820;DHT22;392;48.838;2.322;2022-11-15T00:02:19;12.00;89.30
820;DHT22;392;48.838;2.322;2022-11-15T00:05:05;12.00;90.00
820;DHT22;392;48.838;2.322;2022-11-15T00:07:52;12.00;90.20
820;DHT22;392;48.838;2.322;2022-11-15T00:10:39;12.00;90.10
820;DHT22;392;48.838;2.322;2022-11-15T00:13:25;12.00;89.60
820;DHT22;392;48.838;2.322;2022-11-15T00:16:11;12.00;89.50
820;DHT22;392;48.838;2.322;2022-11-15T00:18:57;12.00;89.40
820;DHT22;392;48.838;2.322;2022-11-15T00:21:43;11.90;89.20
820;DHT22;392;48.838;2.322;2022-11-15T00:24:29;11.90;89.10
820;DHT22;392;48.838;2.322;2022-11-15T00:27:17;11.90;89.00
820;DHT22;392;48.838;2.322;2022-11-15T00:30:03;11.80;88.30
820;DHT22;392;48.838;2.322;2022-11-15T00:32:50;11.80;87.80
820;DHT22;392;48.838;2.322;2022-11-15T00:35:36;11.70;87.70
820;DHT22;392;48.838;2.322;2022-11-15T00:38:21;11.60;86.90
820;DHT22;392;48.838;2.322;2022-11-15T00:41:08;11.50;87.70
820;DHT22;392;48.838;2.322;2022-11-15T00:43:55;11.50;88.20
820;DHT22;392;48.838;2.322;2022-11-15T00:46:41;11.50;88.40
820;DHT22;392;48.838;2.322;2022-11-15T00:49:27;11.40;88.40
820;DHT22;392;48.838;2.322;2022-11-15T00:52:13;11.30;89.60
820;DHT22;392;48.838;2.322;2022-11-15T00:54:59;11.30;89.40
820;DHT22;392;48.838;2.322;2022-11-15T00:57:45;11.30;89.40
820;DHT22;392;48.838;2.322;2022-11-15T01:00:33;11.30;89.60
820;DHT22;392;48.838;2.322;2022-11-15T01:03:19;11.20;89.10
820;DHT22;392;48.838;2.322;2022-11-15T01:06:06;11.10;89.80
820;DHT22;392;48.838;2.322;2022-11-15T01:08:52;11.10;90.10
820;DHT22;392;48.838;2.322;2022-11-15T01:11:38;11.00;89.70
820;DHT22;392;48.838;2.322;2022-11-15T01:14:25;11.00;89.70
820;DHT22;392;48.838;2.322;2022-11-15T01:17:12;11.00;90.00
820;DHT22;392;48.838;2.322;2022-11-15T01:19:58;10.90;90.00
820;DHT22;392;48.838;2.322;2022-11-15T01:22:44;10.80;90.00
820;DHT22;392;48.838;2.322;2022-11-15T01:25:30;10.80;90.40
820;DHT22;392;48.838;2.322;2022-11-15T01:28:16;10.80;90.60
820;DHT22;392;48.838;2.322;2022-11-15T01:31:05;10.80;90.50
820;DHT22;392;48.838;2.322;2022-11-15T01:33:53;10.70;90.60
820;DHT22;392;48.838;2.322;2022-11-15T01:36:40;10.60;90.70
820;DHT22;392;48.838;2.322;2022-11-15T01:39:26;10.60;91.10
820;DHT22;392;48.838;2.322;2022-11-15T01:42:12;10.50;91.50
820;DHT22;392;48.838;2.322;2022-11-15T01:44:58;10.60;92.00
820;DHT22;392;48.838;2.322;2022-11-15T01:47:47;10.60;91.80
820;DHT22;392;48.838;2.322;2022-11-15T01:50:35;10.50;91.40
820;DHT22;392;48.838;2.322;2022-11-15T01:53:23;10.50;91.30
820;DHT22;392;48.838;2.322;2022-11-15T01:56:13;10.40;91.10
820;DHT22;392;48.838;2.322;2022-11-15T01:59:03;10.40;90.90
820;DHT22;392;48.838;2.322;2022-11-15T02:01:50;10.30;90.50
820;DHT22;392;48.838;2.322;2022-11-15T02:04:39;10.30;90.80
820;DHT22;392;48.838;2.322;2022-11-15T02:07:28;10.30;90.80
820;DHT22;392;48.838;2.322;2022-11-15T02:10:18;10.30;90.70
820;DHT22;392;48.838;2.322;2022-11-15T02:13:05;10.20;90.30
820;DHT22;392;48.838;2.322;2022-11-15T02:15:59;10.10;90.50
820;DHT22;392;48.838;2.322;2022-11-15T02:18:54;10.10;91.00
820;DHT22;392;48.838;2.322;2022-11-15T02:21:46;10.10;90.80
820;DHT22;392;48.838;2.322;2022-11-15T02:25:01;10.00;90.60
820;DHT22;392;48.838;2.322;2022-11-15T02:28:37;10.00;90.60
820;DHT22;392;48.838;2.322;2022-11-15T02:31:36;9.90;90.60
820;DHT22;392;48.838;2.322;2022-11-15T02:34:31;9.90;90.60
820;DHT22;392;48.838;2.322;2022-11-15T02:37:26;9.80;90.50
820;DHT22;392;48.838;2.322;2022-11-15T02:40:34;9.90;90.60
820;DHT22;392;48.838;2.322;2022-11-15T02:43:28;9.70;90.60
820;DHT22;392;48.838;2.322;2022-11-15T02:46:40;9.80;90.80
820;DHT22;392;48.838;2.322;2022-11-15T02:49:50;9.70;90.20
820;DHT22;392;48.838;2.322;2022-11-15T02:52:37;9.80;90.40
820;DHT22;392;48.838;2.322;2022-11-15T02:55:30;9.80;90.10
820;DHT22;392;48.838;2.322;2022-11-15T02:58:35;9.70;89.80
820;DHT22;392;48.838;2.322;2022-11-15T03:01:43;9.80;90.00
820;DHT22;392;48.838;2.322;2022-11-15T03:04:43;9.80;89.50
820;DHT22;392;48.838;2.322;2022-11-15T03:07:33;9.80;88.60
820;DHT22;392;48.838;2.322;2022-11-15T03:10:25;9.80;88.80
820;DHT22;392;48.838;2.322;2022-11-15T03:13:23;9.80;89.30
820;DHT22;392;48.838;2.322;2022-11-15T03:16:18;9.80;89.00
820;DHT22;392;48.838;2.322;2022-11-15T03:19:12;9.80;88.50
820;DHT22;392;48.838;2.322;2022-11-15T03:22:02;9.90;88.20
820;DHT22;392;48.838;2.322;2022-11-15T03:24:53;9.80;87.30
820;DHT22;392;48.838;2.322;2022-11-15T03:27:46;9.80;87.40
820;DHT22;392;48.838;2.322;2022-11-15T03:30:34;9.70;87.70
820;DHT22;392;48.838;2.322;2022-11-15T03:33:22;9.70;88.30
820;DHT22;392;48.838;2.322;2022-11-15T03:36:09;9.70;87.90
820;DHT22;392;48.838;2.322;2022-11-15T03:39:00;9.70;88.10
820;DHT22;392;48.838;2.322;2022-11-15T03:41:51;9.80;88.30
820;DHT22;392;48.838;2.322;2022-11-15T03:44:46;9.90;88.70
820;DHT22;392;48.838;2.322;2022-11-15T03:47:39;9.90;87.30
820;DHT22;392;48.838;2.322;2022-11-15T03:50:27;10.00;85.60
820;DHT22;392;48.838;2.322;2022-11-15T03:53:17;9.90;85.90
820;DHT22;392;48.838;2.322;2022-11-15T03:56:03;9.90;85.90
820;DHT22;392;48.838;2.322;2022-11-15T03:58:50;9.90;86.00
820;DHT22;392;48.838;2.322;2022-11-15T04:01:36;9.90;86.10
820;DHT22;392;48.838;2.322;2022-11-15T04:04:22;9.90;86.10
820;DHT22;392;48.838;2.322;2022-11-15T04:07:08;9.90;86.50
820;DHT22;392;48.838;2.322;2022-11-15T04:09:55;9.80;85.90
820;DHT22;392;48.838;2.322;2022-11-15T04:12:47;9.80;86.40
820;DHT22;392;48.838;2.322;2022-11-15T04:15:33;9.70;86.80
820;DHT22;392;48.838;2.322;2022-11-15T04:18:20;9.70;86.90
820;DHT22;392;48.838;2.322;2022-11-15T04:21:07;9.70;87.60
820;DHT22;392;48.838;2.322;2022-11-15T04:24:11;9.60;87.80
820;DHT22;392;48.838;2.322;2022-11-15T04:27:01;9.60;88.90
820;DHT22;392;48.838;2.322;2022-11-15T04:29:47;9.50;89.80
820;DHT22;392;48.838;2.322;2022-11-15T04:32:33;9.50;90.20
820;DHT22;392;48.838;2.322;2022-11-15T04:35:18;9.50;90.40
820;DHT22;392;48.838;2.322;2022-11-15T04:38:06;9.50;90.60
820;DHT22;392;48.838;2.322;2022-11-15T04:40:53;9.50;90.50
820;DHT22;392;48.838;2.322;2022-11-15T04:43:40;9.50;90.30
820;DHT22;392;48.838;2.322;2022-11-15T04:46:26;9.50;90.50
820;DHT22;392;48.838;2.322;2022-11-15T04:49:12;9.50;90.50
820;DHT22;392;48.838;2.322;2022-11-15T04:51:58;9.40;90.40
820;DHT22;392;48.838;2.322;2022-11-15T04:54:44;9.50;90.60
820;DHT22;392;48.838;2.322;2022-11-15T04:57:30;9.50;90.80
820;DHT22;392;48.838;2.322;2022-11-15T05:00:18;9.50;90.80
820;DHT22;392;48.838;2.322;2022-11-15T05:03:04;9.50;90.70
820;DHT22;392;48.838;2.322;2022-11-15T05:06:07;9.50;90.90
820;DHT22;392;48.838;2.322;2022-11-15T05:08:53;9.40;91.00
820;DHT22;392;48.838;2.322;2022-11-15T05:11:39;9.40;91.40
820;DHT22;392;48.838;2.322;2022-11-15T05:14:25;9.40;91.70
820;DHT22;392;48.838;2.322;2022-11-15T05:17:12;9.40;92.00
820;DHT22;392;48.838;2.322;2022-11-15T05:19:58;9.30;92.50
820;DHT22;392;48.838;2.322;2022-11-15T05:22:43;9.30;92.90
820;DHT22;392;48.838;2.322;2022-11-15T05:25:30;9.30;93.30
820;DHT22;392;48.838;2.322;2022-11-15T05:28:15;9.30;93.60
820;DHT22;392;48.838;2.322;2022-11-15T05:31:02;9.30;93.70
820;DHT22;392;48.838;2.322;2022-11-15T05:33:50;9.30;94.00
820;DHT22;392;48.838;2.322;2022-11-15T05:36:38;9.40;94.10
820;DHT22;392;48.838;2.322;2022-11-15T05:39:24;9.40;94.10
820;DHT22;392;48.838;2.322;2022-11-15T05:42:13;9.50;93.90
820;DHT22;392;48.838;2.322;2022-11-15T05:45:01;9.40;94.00
820;DHT22;392;48.838;2.322;2022-11-15T05:47:49;9.50;93.90
820;DHT22;392;48.838;2.322;2022-11-15T05:50:39;9.60;93.70
820;DHT22;392;48.838;2.322;2022-11-15T05:53:26;9.60;93.70
820;DHT22;392;48.838;2.322;2022-11-15T05:56:14;9.60;93.70
820;DHT22;392;48.838;2.322;2022-11-15T05:59:00;9.70;93.60
820;DHT22;392;48.838;2.322;2022-11-15T06:01:46;9.70;93.40
820;DHT22;392;48.838;2.322;2022-11-15T06:04:32;9.70;93.10
820;DHT22;392;48.838;2.322;2022-11-15T06:07:19;9.70;93.20
820;DHT22;392;48.838;2.322;2022-11-15T06:10:06;9.70;93.30
820;DHT22;392;48.838;2.322;2022-11-15T06:12:57;9.80;93.40
820;DHT22;392;48.838;2.322;2022-11-15T06:15:43;9.90;93.20
820;DHT22;392;48.838;2.322;2022-11-15T06:18:32;9.90;93.10
820;DHT22;392;48.838;2.322;2022-11-15T06:21:18;9.90;93.00
820;DHT22;392;48.838;2.322;2022-11-15T06:24:06;10.00;92.30
820;DHT22;392;48.838;2.322;2022-11-15T06:26:52;9.90;92.50
820;DHT22;392;48.838;2.322;2022-11-15T06:29:38;9.90;92.50
820;DHT22;392;48.838;2.322;2022-11-15T06:32:24;9.90;92.70
820;DHT22;392;48.838;2.322;2022-11-15T06:35:10;10.00;92.40
820;DHT22;392;48.838;2.322;2022-11-15T06:38:01;10.00;92.40
820;DHT22;392;48.838;2.322;2022-11-15T06:40:49;10.00;92.40
820;DHT22;392;48.838;2.322;2022-11-15T06:43:36;10.00;92.50
820;DHT22;392;48.838;2.322;2022-11-15T06:46:22;10.00;92.80
820;DHT22;392;48.838;2.322;2022-11-15T06:49:08;10.00;92.70
820;DHT22;392;48.838;2.322;2022-11-15T06:51:54;10.00;92.70
820;DHT22;392;48.838;2.322;2022-11-15T06:54:40;10.00;92.70
820;DHT22;392;48.838;2.322;2022-11-15T06:57:27;10.00;92.70
820;DHT22;392;48.838;2.322;2022-11-15T07:00:14;9.90;93.30
820;DHT22;392;48.838;2.322;2022-11-15T07:03:02;9.90;93.50
820;DHT22;392;48.838;2.322;2022-11-15T07:05:52;9.90;93.80
820;DHT22;392;48.838;2.322;2022-11-15T07:08:38;9.90;93.80
820;DHT22;392;48.838;2.322;2022-11-15T07:11:25;10.00;93.40
820;DHT22;392;48.838;2.322;2022-11-15T07:14:13;10.00;93.40
820;DHT22;392;48.838;2.322;2022-11-15T07:16:59;10.00;93.40
820;DHT22;392;48.838;2.322;2022-11-15T07:19:45;10.10;93.50
820;DHT22;392;48.838;2.322;2022-11-15T07:22:30;10.10;93.40
820;DHT22;392;48.838;2.322;2022-11-15T07:25:16;10.10;93.40
820;DHT22;392;48.838;2.322;2022-11-15T07:28:03;10.10;93.40
820;DHT22;392;48.838;2.322;2022-11-15T07:30:50;10.20;93.50
820;DHT22;392;48.838;2.322;2022-11-15T07:33:36;10.30;93.50
820;DHT22;392;48.838;2.322;2022-11-15T07:36:22;10.30;93.20
820;DHT22;392;48.838;2.322;2022-11-15T07:39:08;10.30;93.30
820;DHT22;392;48.838;2.322;2022-11-15T07:41:54;10.30;93.20
820;DHT22;392;48.838;2.322;2022-11-15T07:45:00;10.30;93.10
820;DHT22;392;48.838;2.322;2022-11-15T07:47:47;10.30;93.00
820;DHT22;392;48.838;2.322;2022-11-15T07:50:33;10.40;93.10
820;DHT22;392;48.838;2.322;2022-11-15T07:53:18;10.40;93.00
820;DHT22;392;48.838;2.322;2022-11-15T07:56:06;10.40;93.30
820;DHT22;392;48.838;2.322;2022-11-15T07:58:52;10.60;93.30
820;DHT22;392;48.838;2.322;2022-11-15T08:01:37;10.60;92.90
820;DHT22;392;48.838;2.322;2022-11-15T08:04:25;10.70;92.80
820;DHT22;392;48.838;2.322;2022-11-15T08:07:10;10.70;92.40
820;DHT22;392;48.838;2.322;2022-11-15T08:09:56;10.70;92.10
820;DHT22;392;48.838;2.322;2022-11-15T08:12:42;10.80;91.90
820;DHT22;392;48.838;2.322;2022-11-15T08:15:28;10.90;91.30
820;DHT22;392;48.838;2.322;2022-11-15T08:18:16;11.00;91.40
820;DHT22;392;48.838;2.322;2022-11-15T08:21:04;11.00;90.80
820;DHT22;392;48.838;2.322;2022-11-15T08:23:50;11.10;90.20
820;DHT22;392;48.838;2.322;2022-11-15T08:26:37;11.10;90.00
820;DHT22;392;48.838;2.322;2022-11-15T08:29:22;11.10;88.90
820;DHT22;392;48.838;2.322;2022-11-15T08:32:08;11.20;88.40
820;DHT22;392;48.838;2.322;2022-11-15T08:34:55;11.30;87.50
820;DHT22;392;48.838;2.322;2022-11-15T08:37:42;11.30;87.50
820;DHT22;392;48.838;2.322;2022-11-15T08:40:28;11.40;87.20
820;DHT22;392;48.838;2.322;2022-11-15T08:43:14;11.50;85.70
820;DHT22;392;48.838;2.322;2022-11-15T08:46:00;11.50;84.80
820;DHT22;392;48.838;2.322;2022-11-15T08:48:46;11.50;84.40
820;DHT22;392;48.838;2.322;2022-11-15T08:51:32;11.60;84.20
820;DHT22;392;48.838;2.322;2022-11-15T08:54:19;11.60;84.00
820;DHT22;392;48.838;2.322;2022-11-15T08:57:05;11.70;83.30
820;DHT22;392;48.838;2.322;2022-11-15T08:59:53;11.80;82.80
820;DHT22;392;48.838;2.322;2022-11-15T09:02:40;11.80;82.30
820;DHT22;392;48.838;2.322;2022-11-15T09:05:26;11.80;81.70
820;DHT22;392;48.838;2.322;2022-11-15T09:08:12;11.90;81.20
820;DHT22;392;48.838;2.322;2022-11-15T09:11:03;12.00;81.20
820;DHT22;392;48.838;2.322;2022-11-15T09:13:49;12.00;80.70
820;DHT22;392;48.838;2.322;2022-11-15T09:16:35;12.10;79.30
820;DHT22;392;48.838;2.322;2022-11-15T09:19:21;12.10;79.30
820;DHT22;392;48.838;2.322;2022-11-15T09:22:07;12.10;79.30
820;DHT22;392;48.838;2.322;2022-11-15T09:24:53;12.10;78.90
820;DHT22;392;48.838;2.322;2022-11-15T09:27:40;12.10;78.90
820;DHT22;392;48.838;2.322;2022-11-15T09:30:26;12.10;79.70
820;DHT22;392;48.838;2.322;2022-11-15T09:33:12;12.00;78.20
820;DHT22;392;48.838;2.322;2022-11-15T09:36:00;12.00;78.50
820;DHT22;392;48.838;2.322;2022-11-15T09:38:46;12.00;78.40
820;DHT22;392;48.838;2.322;2022-11-15T09:45:22;12.10;75.90
820;DHT22;392;48.838;2.322;2022-11-15T09:48:30;12.20;76.80
820;DHT22;392;48.838;2.322;2022-11-15T09:51:32;12.30;76.70
820;DHT22;392;48.838;2.322;2022-11-15T09:54:05;12.30;76.60
820;DHT22;392;48.838;2.322;2022-11-15T09:56:39;12.30;77.80
820;DHT22;392;48.838;2.322;2022-11-15T09:59:26;12.30;78.50
820;DHT22;392;48.838;2.322;2022-11-15T10:02:04;12.20;79.00
820;DHT22;392;48.838;2.322;2022-11-15T10:04:40;12.20;80.80
820;DHT22;392;48.838;2.322;2022-11-15T10:07:14;12.20;82.80
820;DHT22;392;48.838;2.322;2022-11-15T10:09:48;12.20;84.50
820;DHT22;392;48.838;2.322;2022-11-15T10:12:18;12.10;86.40
820;DHT22;392;48.838;2.322;2022-11-15T10:14:47;12.10;87.50
820;DHT22;392;48.838;2.322;2022-11-15T10:17:31;12.10;88.30
820;DHT22;392;48.838;2.322;2022-11-15T10:20:16;12.20;88.50
820;DHT22;392;48.838;2.322;2022-11-15T10:22:47;12.10;88.10
820;DHT22;392;48.838;2.322;2022-11-15T10:25:19;12.20;88.10
820;DHT22;392;48.838;2.322;2022-11-15T10:27:54;12.20;89.00
820;DHT22;392;48.838;2.322;2022-11-15T10:30:30;12.30;89.70
820;DHT22;392;48.838;2.322;2022-11-15T10:33:13;12.40;89.40
820;DHT22;392;48.838;2.322;2022-11-15T10:35:46;12.40;87.20
820;DHT22;392;48.838;2.322;2022-11-15T10:38:14;12.40;86.10
820;DHT22;392;48.838;2.322;2022-11-15T10:40:41;12.30;87.20
820;DHT22;392;48.838;2.322;2022-11-15T10:43:15;12.30;88.00
820;DHT22;392;48.838;2.322;2022-11-15T10:45:44;12.30;88.30
820;DHT22;392;48.838;2.322;2022-11-15T10:48:24;12.30;89.10
820;DHT22;392;48.838;2.322;2022-11-15T10:50:53;12.20;89.30
820;DHT22;392;48.838;2.322;2022-11-15T10:53:29;12.10;90.00
820;DHT22;392;48.838;2.322;2022-11-15T10:56:00;12.10;90.80
820;DHT22;392;48.838;2.322;2022-11-15T10:58:35;12.20;91.50
820;DHT22;392;48.838;2.322;2022-11-15T11:01:19;12.20;92.00
820;DHT22;392;48.838;2.322;2022-11-15T11:04:00;12.20;92.30
820;DHT22;392;48.838;2.322;2022-11-15T11:06:30;12.20;92.40
820;DHT22;392;48.838;2.322;2022-11-15T11:08:59;12.20;92.50
820;DHT22;392;48.838;2.322;2022-11-15T11:11:45;12.20;92.40
820;DHT22;392;48.838;2.322;2022-11-15T11:14:21;12.20;92.40
820;DHT22;392;48.838;2.322;2022-11-15T11:16:54;12.20;92.40
820;DHT22;392;48.838;2.322;2022-11-15T11:19:48;12.20;92.80
820;DHT22;392;48.838;2.322;2022-11-15T11:22:26;12.20;93.40
820;DHT22;392;48.838;2.322;2022-11-15T11:25:12;12.20;93.60
820;DHT22;392;48.838;2.322;2022-11-15T11:27:56;12.10;93.20
820;DHT22;392;48.838;2.322;2022-11-15T11:30:43;12.10;93.70
820;DHT22;392;48.838;2.322;2022-11-15T11:33:19;12.10;94.10
820;DHT22;392;48.838;2.322;2022-11-15T11:36:11;12.10;94.20
820;DHT22;392;48.838;2.322;2022-11-15T11:38:51;12.20;94.30
820;DHT22;392;48.838;2.322;2022-11-15T11:41:46;12.10;94.90
820;DHT22;392;48.838;2.322;2022-11-15T11:44:28;12.10;95.30
820;DHT22;392;48.838;2.322;2022-11-15T11:47:00;12.10;95.60
820;DHT22;392;48.838;2.322;2022-11-15T11:49:37;12.10;95.90
820;DHT22;392;48.838;2.322;2022-11-15T11:52:12;12.00;96.40
820;DHT22;392;48.838;2.322;2022-11-15T11:54:48;12.00;96.90
820;DHT22;392;48.838;2.322;2022-11-15T11:57:28;12.10;97.70
820;DHT22;392;48.838;2.322;2022-11-15T12:00:03;12.10;97.90
820;DHT22;392;48.838;2.322;2022-11-15T12:02:43;12.10;98.10
820;DHT22;392;48.838;2.322;2022-11-15T12:05:16;12.00;98.20
820;DHT22;392;48.838;2.322;2022-11-15T12:07:49;12.10;98.40
820;DHT22;392;48.838;2.322;2022-11-15T12:10:22;12.10;98.60
820;DHT22;392;48.838;2.322;2022-11-15T12:12:56;12.20;98.60
820;DHT22;392;48.838;2.322;2022-11-15T12:15:28;12.10;98.30
820;DHT22;392;48.838;2.322;2022-11-15T12:18:00;12.20;98.40
820;DHT22;392;48.838;2.322;2022-11-15T12:20:33;12.20;98.40
820;DHT22;392;48.838;2.322;2022-11-15T12:23:10;12.30;98.20
820;DHT22;392;48.838;2.322;2022-11-15T12:25:44;12.30;98.00
820;DHT22;392;48.838;2.322;2022-11-15T12:28:17;12.40;98.00
820;DHT22;392;48.838;2.322;2022-11-15T12:30:51;12.40;98.10
820;DHT22;392;48.838;2.322;2022-11-15T12:33:36;12.30;98.20
820;DHT22;392;48.838;2.322;2022-11-15T12:36:08;12.40;98.40
820;DHT22;392;48.838;2.322;2022-11-15T12:38:58;12.40;98.40
820;DHT22;392;48.838;2.322;2022-11-15T12:41:27;12.50;98.50
820;DHT22;392;48.838;2.322;2022-11-15T12:43:56;12.50;98.40
820;DHT22;392;48.838;2.322;2022-11-15T12:49:44;12.60;98.10
820;DHT22;392;48.838;2.322;2022-11-15T12:52:13;12.70;97.90
820;DHT22;392;48.838;2.322;2022-11-15T12:55:02;12.80;97.70
820;DHT22;392;48.838;2.322;2022-11-15T12:58:26;12.80;97.40
820;DHT22;392;48.838;2.322;2022-11-15T13:00:54;12.80;96.80
820;DHT22;392;48.838;2.322;2022-11-15T13:03:29;12.80;96.60
820;DHT22;392;48.838;2.322;2022-11-15T13:06:10;12.80;96.70
820;DHT22;392;48.838;2.322;2022-11-15T13:12:50;12.90;96.40
820;DHT22;392;48.838;2.322;2022-11-15T13:15:40;12.80;96.30
820;DHT22;392;48.838;2.322;2022-11-15T13:18:29;12.70;96.50
820;DHT22;392;48.838;2.322;2022-11-15T13:20:59;12.80;96.90
820;DHT22;392;48.838;2.322;2022-11-15T13:23:28;12.80;96.80
820;DHT22;392;48.838;2.322;2022-11-15T13:26:13;12.80;97.00
820;DHT22;392;48.838;2.322;2022-11-15T13:28:44;12.90;97.00
820;DHT22;392;48.838;2.322;2022-11-15T13:31:24;13.00;96.90
820;DHT22;392;48.838;2.322;2022-11-15T13:33:55;13.00;96.70
820;DHT22;392;48.838;2.322;2022-11-15T13:36:27;13.00;96.50
820;DHT22;392;48.838;2.322;2022-11-15T13:39:00;13.00;96.30
820;DHT22;392;48.838;2.322;2022-11-15T13:41:31;13.00;96.40
820;DHT22;392;48.838;2.322;2022-11-15T13:44:01;13.00;96.30
820;DHT22;392;48.838;2.322;2022-11-15T13:46:30;13.10;96.50
820;DHT22;392;48.838;2.322;2022-11-15T13:49:00;13.20;96.40
820;DHT22;392;48.838;2.322;2022-11-15T13:51:35;13.20;96.10
820;DHT22;392;48.838;2.322;2022-11-15T13:54:13;13.10;95.90
820;DHT22;392;48.838;2.322;2022-11-15T13:56:48;13.10;95.70
820;DHT22;392;48.838;2.322;2022-11-15T13:59:24;13.10;95.90
820;DHT22;392;48.838;2.322;2022-11-15T14:01:53;13.10;96.10
820;DHT22;392;48.838;2.322;2022-11-15T14:04:23;13.10;96.20
820;DHT22;392;48.838;2.322;2022-11-15T14:06:54;13.10;96.20
820;DHT22;392;48.838;2.322;2022-11-15T14:09:36;13.10;96.20
820;DHT22;392;48.838;2.322;2022-11-15T14:12:26;13.10;96.30
820;DHT22;392;48.838;2.322;2022-11-15T14:14:55;13.20;96.50
820;DHT22;392;48.838;2.322;2022-11-15T14:17:34;13.20;96.60
820;DHT22;392;48.838;2.322;2022-11-15T14:20:19;13.20;96.80
820;DHT22;392;48.838;2.322;2022-11-15T14:22:55;13.20;97.10
820;DHT22;392;48.838;2.322;2022-11-15T14:25:24;13.10;97.30
820;DHT22;392;48.838;2.322;2022-11-15T14:28:27;13.20;97.70
820;DHT22;392;48.838;2.322;2022-11-15T14:30:58;13.10;97.70
820;DHT22;392;48.838;2.322;2022-11-15T14:33:28;13.10;97.90
820;DHT22;392;48.838;2.322;2022-11-15T14:36:02;13.10;98.00
820;DHT22;392;48.838;2.322;2022-11-15T14:38:31;13.10;98.20
820;DHT22;392;48.838;2.322;2022-11-15T14:41:00;13.10;98.20
820;DHT22;392;48.838;2.322;2022-11-15T14:43:27;13.20;98.20
820;DHT22;392;48.838;2.322;2022-11-15T14:45:54;13.10;98.20
820;DHT22;392;48.838;2.322;2022-11-15T14:48:22;13.10;98.30
820;DHT22;392;48.838;2.322;2022-11-15T14:50:49;13.10;98.30
820;DHT22;392;48.838;2.322;2022-11-15T14:53:17;13.10;98.30
820;DHT22;392;48.838;2.322;2022-11-15T14:55:45;13.20;98.40
820;DHT22;392;48.838;2.322;2022-11-15T14:58:14;13.10;98.30
820;DHT22;392;48.838;2.322;2022-11-15T15:00:42;13.10;98.50
820;DHT22;392;48.838;2.322;2022-11-15T15:03:09;13.20;98.70
820;DHT22;392;48.838;2.322;2022-11-15T15:05:38;13.20;98.80
820;DHT22;392;48.838;2.322;2022-11-15T15:08:07;13.20;98.80
820;DHT22;392;48.838;2.322;2022-11-15T15:10:37;13.20;98.50
820;DHT22;392;48.838;2.322;2022-11-15T15:13:12;13.20;98.60
820;DHT22;392;48.838;2.322;2022-11-15T15:15:44;13.30;98.60
820;DHT22;392;48.838;2.322;2022-11-15T15:18:12;13.30;98.70
820;DHT22;392;48.838;2.322;2022-11-15T15:20:41;13.30;98.70
820;DHT22;392;48.838;2.322;2022-11-15T15:23:15;13.30;98.80
820;DHT22;392;48.838;2.322;2022-11-15T15:25:44;13.30;99.00
820;DHT22;392;48.838;2.322;2022-11-15T15:28:13;13.30;99.10
820;DHT22;392;48.838;2.322;2022-11-15T15:30:42;13.30;99.10
820;DHT22;392;48.838;2.322;2022-11-15T15:33:09;13.30;99.10
820;DHT22;392;48.838;2.322;2022-11-15T15:35:37;13.30;99.10
820;DHT22;392;48.838;2.322;2022-11-15T15:38:05;13.40;99.20
820;DHT22;392;48.838;2.322;2022-11-15T15:40:33;13.40;99.20
820;DHT22;392;48.838;2.322;2022-11-15T15:43:00;13.40;99.20
820;DHT22;392;48.838;2.322;2022-11-15T15:45:28;13.50;99.20
820;DHT22;392;48.838;2.322;2022-11-15T15:47:57;13.50;99.10
820;DHT22;392;48.838;2.322;2022-11-15T15:50:25;13.40;98.80
820;DHT22;392;48.838;2.322;2022-11-15T15:52:56;13.40;98.60
820;DHT22;392;48.838;2.322;2022-11-15T15:55:24;13.40;98.70
820;DHT22;392;48.838;2.322;2022-11-15T15:57:53;13.40;98.60
820;DHT22;392;48.838;2.322;2022-11-15T16:00:22;13.40;98.50
820;DHT22;392;48.838;2.322;2022-11-15T16:02:50;13.40;98.50
820;DHT22;392;48.838;2.322;2022-11-15T16:05:20;13.40;98.50
820;DHT22;392;48.838;2.322;2022-11-15T16:07:48;13.40;98.50
820;DHT22;392;48.838;2.322;2022-11-15T16:10:21;13.40;98.50
820;DHT22;392;48.838;2.322;2022-11-15T16:12:51;13.50;98.50
820;DHT22;392;48.838;2.322;2022-11-15T16:15:19;13.40;98.40
820;DHT22;392;48.838;2.322;2022-11-15T16:17:51;13.40;98.40
820;DHT22;392;48.838;2.322;2022-11-15T16:20:32;13.50;98.50
820;DHT22;392;48.838;2.322;2022-11-15T16:23:03;13.50;98.50
820;DHT22;392;48.838;2.322;2022-11-15T16:25:34;13.50;98.50
820;DHT22;392;48.838;2.322;2022-11-15T16:28:05;13.50;98.50
820;DHT22;392;48.838;2.322;2022-11-15T16:30:34;13.50;98.60
820;DHT22;392;48.838;2.322;2022-11-15T16:33:03;13.50;98.70
820;DHT22;392;48.838;2.322;2022-11-15T16:35:32;13.50;99.10
820;DHT22;392;48.838;2.322;2022-11-15T16:38:01;13.50;99.30
820;DHT22;392;48.838;2.322;2022-11-15T16:40:30;13.50;99.40
820;DHT22;392;48.838;2.322;2022-11-15T16:42:59;13.50;99.50
820;DHT22;392;48.838;2.322;2022-11-15T16:45:28;13.40;99.70
820;DHT22;392;48.838;2.322;2022-11-15T16:47:56;13.50;99.90
820;DHT22;392;48.838;2.322;2022-11-15T16:50:26;13.40;99.90
820;DHT22;392;48.838;2.322;2022-11-15T16:52:57;13.50;99.90
820;DHT22;392;48.838;2.322;2022-11-15T16:55:27;13.50;99.90
820;DHT22;392;48.838;2.322;2022-11-15T16:57:55;13.50;99.90
820;DHT22;392;48.838;2.322;2022-11-15T17:00:24;13.50;99.90
820;DHT22;392;48.838;2.322;2022-11-15T17:02:52;13.50;99.90
820;DHT22;392;48.838;2.322;2022-11-15T17:05:22;13.50;99.90
820;DHT22;392;48.838;2.322;2022-11-15T17:07:52;13.50;99.90
820;DHT22;392;48.838;2.322;2022-11-15T17:10:22;13.50;99.90
820;DHT22;392;48.838;2.322;2022-11-15T17:12:50;13.50;99.90
820;DHT22;392;48.838;2.322;2022-11-15T17:15:18;13.40;99.90
820;DHT22;392;48.838;2.322;2022-11-15T17:17:50;13.50;99.90
820;DHT22;392;48.838;2.322;2022-11-15T17:20:20;13.50;99.90
820;DHT22;392;48.838;2.322;2022-11-15T17:22:48;13.50;99.90
820;DHT22;392;48.838;2.322;2022-11-15T17:25:17;13.50;99.90
820;DHT22;392;48.838;2.322;2022-11-15T17:27:46;13.50;99.90
820;DHT22;392;48.838;2.322;2022-11-15T17:30:14;13.50;99.90
820;DHT22;392;48.838;2.322;2022-11-15T17:32:43;13.50;99.90
820;DHT22;392;48.838;2.322;2022-11-15T17:35:11;13.50;99.90
820;DHT22;392;48.838;2.322;2022-11-15T17:37:39;13.50;99.90
820;DHT22;392;48.838;2.322;2022-11-15T17:40:07;13.50;99.90
820;DHT22;392;48.838;2.322;2022-11-15T17:42:35;13.50;99.90
820;DHT22;392;48.838;2.322;2022-11-15T17:45:05;13.60;99.90
820;DHT22;392;48.838;2.322;2022-11-15T17:47:33;13.60;99.90
820;DHT22;392;48.838;2.322;2022-11-15T17:50:01;13.60;99.90
820;DHT22;392;48.838;2.322;2022-11-15T17:52:28;13.70;99.90
820;DHT22;392;48.838;2.322;2022-11-15T17:54:55;13.70;99.90
820;DHT22;392;48.838;2.322;2022-11-15T17:57:23;13.70;99.90
820;DHT22;392;48.838;2.322;2022-11-15T17:59:50;13.70;99.90
820;DHT22;392;48.838;2.322;2022-11-15T18:02:19;13.70;99.90
820;DHT22;392;48.838;2.322;2022-11-15T18:04:46;13.60;99.90
820;DHT22;392;48.838;2.322;2022-11-15T18:07:14;13.60;99.90
820;DHT22;392;48.838;2.322;2022-11-15T18:09:41;13.60;99.90
820;DHT22;392;48.838;2.322;2022-11-15T18:12:09;13.60;99.90
820;DHT22;392;48.838;2.322;2022-11-15T18:14:36;13.60;99.90
820;DHT22;392;48.838;2.322;2022-11-15T18:17:04;13.60;99.90
820;DHT22;392;48.838;2.322;2022-11-15T18:19:32;13.60;99.90
820;DHT22;392;48.838;2.322;2022-11-15T18:22:01;13.50;99.90
820;DHT22;392;48.838;2.322;2022-11-15T18:24:31;13.40;99.90